sensor_id;sensor_type;location;lat;lon;timestamp;P1;durP1;ratioP1;P2;durP2;ratioP2
17710;SDS011;8975;57.718;12.134;2022-07-06T00:02:22;547.77;;;0.30;;
17710;SDS011;8975;57.718;12.134;2022-07-06T00:04:48;545.88;;;0.30;;
17710;SDS011;8975;57.718;12.134;2022-07-06T00:07:13;544.95;;;0.30;;
17710;SDS011;8975;57.718;12.134;2022-07-06T00:09:39;539.97;;;0.30;;
17710;SDS011;8975;57.718;12.134;2022-07-06T00:12:08;544.47;;;0.30;;
17710;SDS011;8975;57.718;12.134;2022-07-06T00:14:33;541.80;;;0.30;;
17710;SDS011;8975;57.718;12.134;2022-07-06T00:16:59;541.22;;;0.30;;
17710;SDS011;8975;57.718;12.134;2022-07-06T00:19:25;542.13;;;0.30;;
17710;SDS011;8975;57.718;12.134;2022-07-06T00:21:50;543.70;;;0.30;;
17710;SDS011;8975;57.718;12.134;2022-07-06T00:24:18;544.25;;;0.30;;
17710;SDS011;8975;57.718;12.134;2022-07-06T00:26:44;542.38;;;0.30;;
17710;SDS011;8975;57.718;12.134;2022-07-06T00:29:10;542.20;;;0.30;;
17710;SDS011;8975;57.718;12.134;2022-07-06T00:31:35;543.25;;;0.30;;
17710;SDS011;8975;57.718;12.134;2022-07-06T00:34:00;542.17;;;0.30;;
17710;SDS011;8975;57.718;12.134;2022-07-06T00:36:26;544.27;;;0.30;;
17710;SDS011;8975;57.718;12.134;2022-07-06T00:38:52;540.53;;;0.30;;
17710;SDS011;8975;57.718;12.134;2022-07-06T00:41:17;543.97;;;0.30;;
17710;SDS011;8975;57.718;12.134;2022-07-06T00:43:47;543.37;;;0.30;;
17710;SDS011;8975;57.718;12.134;2022-07-06T00:46:13;542.53;;;0.30;;
17710;SDS011;8975;57.718;12.134;2022-07-06T00:48:38;542.47;;;0.30;;
17710;SDS011;8975;57.718;12.134;2022-07-06T00:51:03;542.20;;;0.30;;
17710;SDS011;8975;57.718;12.134;2022-07-06T00:53:29;537.63;;;0.30;;
17710;SDS011;8975;57.718;12.134;2022-07-06T00:55:54;542.15;;;0.30;;
17710;SDS011;8975;57.718;12.134;2022-07-06T00:58:20;542.03;;;0.30;;
17710;SDS011;8975;57.718;12.134;2022-07-06T01:00:45;540.40;;;0.30;;
17710;SDS011;8975;57.718;12.134;2022-07-06T01:03:10;535.43;;;0.30;;
17710;SDS011;8975;57.718;12.134;2022-07-06T01:05:36;536.17;;;0.30;;
17710;SDS011;8975;57.718;12.134;2022-07-06T01:08:01;539.83;;;0.30;;
17710;SDS011;8975;57.718;12.134;2022-07-06T01:10:27;539.47;;;0.30;;
17710;SDS011;8975;57.718;12.134;2022-07-06T01:12:52;538.73;;;0.30;;
17710;SDS011;8975;57.718;12.134;2022-07-06T01:15:19;539.75;;;0.30;;
17710;SDS011;8975;57.718;12.134;2022-07-06T01:17:49;539.30;;;0.30;;
17710;SDS011;8975;57.718;12.134;2022-07-06T01:20:22;536.90;;;0.30;;
17710;SDS011;8975;57.718;12.134;2022-07-06T01:22:49;535.22;;;0.20;;
17710;SDS011;8975;57.718;12.134;2022-07-06T01:25:16;539.45;;;0.30;;
17710;SDS011;8975;57.718;12.134;2022-07-06T01:27:42;539.35;;;0.30;;
17710;SDS011;8975;57.718;12.134;2022-07-06T01:30:09;540.80;;;0.30;;
17710;SDS011;8975;57.718;12.134;2022-07-06T01:32:38;536.40;;;0.30;;
17710;SDS011;8975;57.718;12.134;2022-07-06T01:35:05;537.92;;;0.30;;
17710;SDS011;8975;57.718;12.134;2022-07-06T01:37:32;536.53;;;0.30;;
17710;SDS011;8975;57.718;12.134;2022-07-06T01:39:58;536.83;;;0.30;;
17710;SDS011;8975;57.718;12.134;2022-07-06T01:42:26;531.78;;;0.30;;
17710;SDS011;8975;57.718;12.134;2022-07-06T01:44:52;534.75;;;0.30;;
17710;SDS011;8975;57.718;12.134;2022-07-06T01:47:18;535.10;;;0.30;;
17710;SDS011;8975;57.718;12.134;2022-07-06T01:49:43;537.30;;;0.30;;
17710;SDS011;8975;57.718;12.134;2022-07-06T01:52:08;538.93;;;0.30;;
17710;SDS011;8975;57.718;12.134;2022-07-06T01:54:34;539.00;;;0.30;;
17710;SDS011;8975;57.718;12.134;2022-07-06T01:56:59;536.50;;;0.30;;
17710;SDS011;8975;57.718;12.134;2022-07-06T01:59:24;535.33;;;0.30;;
17710;SDS011;8975;57.718;12.134;2022-07-06T02:01:50;538.67;;;0.30;;
17710;SDS011;8975;57.718;12.134;2022-07-06T02:04:15;536.95;;;0.30;;
17710;SDS011;8975;57.718;12.134;2022-07-06T02:06:40;534.13;;;0.30;;
17710;SDS011;8975;57.718;12.134;2022-07-06T02:09:06;538.17;;;0.30;;
17710;SDS011;8975;57.718;12.134;2022-07-06T02:11:31;533.63;;;0.30;;
17710;SDS011;8975;57.718;12.134;2022-07-06T02:13:56;536.30;;;0.30;;
17710;SDS011;8975;57.718;12.134;2022-07-06T02:16:22;533.27;;;0.30;;
17710;SDS011;8975;57.718;12.134;2022-07-06T02:18:47;539.03;;;0.30;;
17710;SDS011;8975;57.718;12.134;2022-07-06T02:21:12;534.07;;;0.30;;
17710;SDS011;8975;57.718;12.134;2022-07-06T02:23:39;536.35;;;0.30;;
17710;SDS011;8975;57.718;12.134;2022-07-06T02:26:06;537.42;;;0.30;;
17710;SDS011;8975;57.718;12.134;2022-07-06T02:28:31;534.37;;;0.30;;
17710;SDS011;8975;57.718;12.134;2022-07-06T02:30:57;534.75;;;0.30;;
17710;SDS011;8975;57.718;12.134;2022-07-06T02:33:22;536.30;;;0.30;;
17710;SDS011;8975;57.718;12.134;2022-07-06T02:35:47;535.40;;;0.30;;
17710;SDS011;8975;57.718;12.134;2022-07-06T02:38:13;534.87;;;0.30;;
17710;SDS011;8975;57.718;12.134;2022-07-06T02:40:38;533.78;;;0.30;;
17710;SDS011;8975;57.718;12.134;2022-07-06T02:43:04;533.90;;;0.30;;
17710;SDS011;8975;57.718;12.134;2022-07-06T02:45:30;536.88;;;0.30;;
17710;SDS011;8975;57.718;12.134;2022-07-06T02:47:55;535.17;;;0.30;;
17710;SDS011;8975;57.718;12.134;2022-07-06T02:50:22;535.58;;;0.20;;
17710;SDS011;8975;57.718;12.134;2022-07-06T02:52:48;534.45;;;0.30;;
17710;SDS011;8975;57.718;12.134;2022-07-06T02:55:13;538.30;;;0.30;;
17710;SDS011;8975;57.718;12.134;2022-07-06T02:57:39;536.13;;;0.30;;
17710;SDS011;8975;57.718;12.134;2022-07-06T03:00:04;538.63;;;0.30;;
17710;SDS011;8975;57.718;12.134;2022-07-06T03:02:30;537.80;;;0.30;;
17710;SDS011;8975;57.718;12.134;2022-07-06T03:04:56;538.05;;;0.25;;
17710;SDS011;8975;57.718;12.134;2022-07-06T03:07:21;536.17;;;0.30;;
17710;SDS011;8975;57.718;12.134;2022-07-06T03:09:47;537.60;;;0.30;;
17710;SDS011;8975;57.718;12.134;2022-07-06T03:12:12;536.77;;;0.30;;
17710;SDS011;8975;57.718;12.134;2022-07-06T03:14:38;535.60;;;0.30;;
17710;SDS011;8975;57.718;12.134;2022-07-06T03:17:03;536.37;;;0.30;;
17710;SDS011;8975;57.718;12.134;2022-07-06T03:19:28;538.70;;;0.30;;
17710;SDS011;8975;57.718;12.134;2022-07-06T03:21:54;536.93;;;0.30;;
17710;SDS011;8975;57.718;12.134;2022-07-06T03:24:19;537.57;;;0.20;;
17710;SDS011;8975;57.718;12.134;2022-07-06T03:26:44;541.20;;;0.30;;
17710;SDS011;8975;57.718;12.134;2022-07-06T03:29:10;538.57;;;0.30;;
17710;SDS011;8975;57.718;12.134;2022-07-06T03:31:35;541.65;;;0.30;;
17710;SDS011;8975;57.718;12.134;2022-07-06T03:34:00;537.03;;;0.30;;
17710;SDS011;8975;57.718;12.134;2022-07-06T03:36:26;537.20;;;0.30;;
17710;SDS011;8975;57.718;12.134;2022-07-06T03:38:51;538.63;;;0.30;;
17710;SDS011;8975;57.718;12.134;2022-07-06T03:41:16;534.37;;;0.30;;
17710;SDS011;8975;57.718;12.134;2022-07-06T03:43:42;536.90;;;0.30;;
17710;SDS011;8975;57.718;12.134;2022-07-06T03:46:07;540.00;;;0.30;;
17710;SDS011;8975;57.718;12.134;2022-07-06T03:48:33;540.03;;;0.30;;
17710;SDS011;8975;57.718;12.134;2022-07-06T03:50:58;540.27;;;0.30;;
17710;SDS011;8975;57.718;12.134;2022-07-06T03:53:23;540.10;;;0.30;;
17710;SDS011;8975;57.718;12.134;2022-07-06T03:55:51;545.05;;;0.30;;
17710;SDS011;8975;57.718;12.134;2022-07-06T03:58:35;543.20;;;0.30;;
17710;SDS011;8975;57.718;12.134;2022-07-06T04:01:00;544.87;;;0.30;;
17710;SDS011;8975;57.718;12.134;2022-07-06T04:03:25;544.90;;;0.30;;
17710;SDS011;8975;57.718;12.134;2022-07-06T04:05:51;547.07;;;0.30;;
17710;SDS011;8975;57.718;12.134;2022-07-06T04:08:17;546.33;;;0.30;;
17710;SDS011;8975;57.718;12.134;2022-07-06T04:10:42;540.73;;;0.30;;
17710;SDS011;8975;57.718;12.134;2022-07-06T04:13:08;543.37;;;0.30;;
17710;SDS011;8975;57.718;12.134;2022-07-06T04:15:33;541.73;;;0.30;;
17710;SDS011;8975;57.718;12.134;2022-07-06T04:17:58;543.07;;;0.30;;
17710;SDS011;8975;57.718;12.134;2022-07-06T04:20:24;545.05;;;0.30;;
17710;SDS011;8975;57.718;12.134;2022-07-06T04:22:52;543.95;;;0.30;;
17710;SDS011;8975;57.718;12.134;2022-07-06T04:25:18;547.67;;;0.30;;
17710;SDS011;8975;57.718;12.134;2022-07-06T04:27:44;544.77;;;0.30;;
17710;SDS011;8975;57.718;12.134;2022-07-06T04:30:10;549.83;;;0.30;;
17710;SDS011;8975;57.718;12.134;2022-07-06T04:32:36;544.57;;;0.30;;
17710;SDS011;8975;57.718;12.134;2022-07-06T04:35:03;543.13;;;0.30;;
17710;SDS011;8975;57.718;12.134;2022-07-06T04:37:29;546.53;;;0.30;;
17710;SDS011;8975;57.718;12.134;2022-07-06T04:39:55;543.63;;;0.30;;
17710;SDS011;8975;57.718;12.134;2022-07-06T04:42:20;545.07;;;0.30;;
17710;SDS011;8975;57.718;12.134;2022-07-06T04:44:46;547.67;;;0.30;;
17710;SDS011;8975;57.718;12.134;2022-07-06T04:47:11;540.63;;;0.30;;
17710;SDS011;8975;57.718;12.134;2022-07-06T04:49:37;539.78;;;0.30;;
17710;SDS011;8975;57.718;12.134;2022-07-06T04:52:03;544.75;;;0.30;;
17710;SDS011;8975;57.718;12.134;2022-07-06T04:54:29;544.83;;;0.30;;
17710;SDS011;8975;57.718;12.134;2022-07-06T04:56:54;543.53;;;0.30;;
17710;SDS011;8975;57.718;12.134;2022-07-06T04:59:19;544.10;;;0.30;;
17710;SDS011;8975;57.718;12.134;2022-07-06T05:01:45;545.17;;;0.30;;
17710;SDS011;8975;57.718;12.134;2022-07-06T05:04:10;543.27;;;0.30;;
17710;SDS011;8975;57.718;12.134;2022-07-06T05:06:36;544.50;;;0.30;;
17710;SDS011;8975;57.718;12.134;2022-07-06T05:09:01;543.93;;;0.30;;
17710;SDS011;8975;57.718;12.134;2022-07-06T05:11:27;543.50;;;0.30;;
17710;SDS011;8975;57.718;12.134;2022-07-06T05:13:52;543.28;;;0.30;;
17710;SDS011;8975;57.718;12.134;2022-07-06T05:16:18;543.60;;;0.30;;
17710;SDS011;8975;57.718;12.134;2022-07-06T05:18:43;544.30;;;0.30;;
17710;SDS011;8975;57.718;12.134;2022-07-06T05:21:09;544.90;;;0.30;;
17710;SDS011;8975;57.718;12.134;2022-07-06T05:23:34;544.55;;;0.30;;
17710;SDS011;8975;57.718;12.134;2022-07-06T05:26:00;547.37;;;0.30;;
17710;SDS011;8975;57.718;12.134;2022-07-06T05:28:25;544.27;;;0.30;;
17710;SDS011;8975;57.718;12.134;2022-07-06T05:30:51;543.57;;;0.30;;
17710;SDS011;8975;57.718;12.134;2022-07-06T05:33:16;543.80;;;0.30;;
17710;SDS011;8975;57.718;12.134;2022-07-06T05:35:42;543.37;;;0.30;;
17710;SDS011;8975;57.718;12.134;2022-07-06T05:38:07;545.47;;;0.30;;
17710;SDS011;8975;57.718;12.134;2022-07-06T05:40:32;547.73;;;0.30;;
17710;SDS011;8975;57.718;12.134;2022-07-06T05:42:58;547.25;;;0.30;;
17710;SDS011;8975;57.718;12.134;2022-07-06T05:45:24;546.90;;;0.30;;
17710;SDS011;8975;57.718;12.134;2022-07-06T05:47:49;542.63;;;0.30;;
17710;SDS011;8975;57.718;12.134;2022-07-06T05:50:33;542.00;;;0.30;;
17710;SDS011;8975;57.718;12.134;2022-07-06T05:52:59;544.33;;;0.30;;
17710;SDS011;8975;57.718;12.134;2022-07-06T05:55:26;547.35;;;0.30;;
17710;SDS011;8975;57.718;12.134;2022-07-06T05:57:52;548.78;;;0.30;;
17710;SDS011;8975;57.718;12.134;2022-07-06T06:00:20;544.45;;;0.30;;
17710;SDS011;8975;57.718;12.134;2022-07-06T06:02:46;548.42;;;0.30;;
17710;SDS011;8975;57.718;12.134;2022-07-06T06:05:12;546.43;;;0.30;;
17710;SDS011;8975;57.718;12.134;2022-07-06T06:07:39;543.37;;;0.30;;
17710;SDS011;8975;57.718;12.134;2022-07-06T06:10:05;547.80;;;0.30;;
17710;SDS011;8975;57.718;12.134;2022-07-06T06:12:36;548.63;;;0.30;;
17710;SDS011;8975;57.718;12.134;2022-07-06T06:15:02;548.70;;;0.30;;
17710;SDS011;8975;57.718;12.134;2022-07-06T06:17:27;545.37;;;0.30;;
17710;SDS011;8975;57.718;12.134;2022-07-06T06:19:53;551.33;;;0.30;;
17710;SDS011;8975;57.718;12.134;2022-07-06T06:22:18;588.23;;;0.30;;
17710;SDS011;8975;57.718;12.134;2022-07-06T06:24:44;566.03;;;0.30;;
17710;SDS011;8975;57.718;12.134;2022-07-06T06:27:09;550.87;;;0.30;;
17710;SDS011;8975;57.718;12.134;2022-07-06T06:29:35;552.87;;;0.30;;
17710;SDS011;8975;57.718;12.134;2022-07-06T06:32:04;553.47;;;0.30;;
17710;SDS011;8975;57.718;12.134;2022-07-06T06:34:30;554.17;;;0.30;;
17710;SDS011;8975;57.718;12.134;2022-07-06T06:36:56;557.72;;;0.30;;
17710;SDS011;8975;57.718;12.134;2022-07-06T06:39:22;553.50;;;0.30;;
17710;SDS011;8975;57.718;12.134;2022-07-06T06:41:47;552.80;;;0.30;;
17710;SDS011;8975;57.718;12.134;2022-07-06T06:44:13;554.03;;;0.30;;
17710;SDS011;8975;57.718;12.134;2022-07-06T06:46:39;554.40;;;0.30;;
17710;SDS011;8975;57.718;12.134;2022-07-06T06:49:05;556.58;;;0.30;;
17710;SDS011;8975;57.718;12.134;2022-07-06T06:51:34;556.47;;;0.30;;
17710;SDS011;8975;57.718;12.134;2022-07-06T06:54:00;557.28;;;0.30;;
17710;SDS011;8975;57.718;12.134;2022-07-06T06:56:25;557.00;;;0.30;;
17710;SDS011;8975;57.718;12.134;2022-07-06T06:58:54;558.27;;;0.30;;
17710;SDS011;8975;57.718;12.134;2022-07-06T07:01:28;558.83;;;0.30;;
17710;SDS011;8975;57.718;12.134;2022-07-06T07:03:54;560.97;;;0.30;;
17710;SDS011;8975;57.718;12.134;2022-07-06T07:06:20;559.03;;;0.30;;
17710;SDS011;8975;57.718;12.134;2022-07-06T07:08:46;564.67;;;0.30;;
17710;SDS011;8975;57.718;12.134;2022-07-06T07:11:11;564.20;;;0.30;;
17710;SDS011;8975;57.718;12.134;2022-07-06T07:13:37;569.83;;;0.30;;
17710;SDS011;8975;57.718;12.134;2022-07-06T07:16:02;572.63;;;0.30;;
17710;SDS011;8975;57.718;12.134;2022-07-06T07:18:28;573.90;;;0.30;;
17710;SDS011;8975;57.718;12.134;2022-07-06T07:20:53;576.65;;;0.30;;
17710;SDS011;8975;57.718;12.134;2022-07-06T07:23:18;575.77;;;0.30;;
17710;SDS011;8975;57.718;12.134;2022-07-06T07:25:44;575.27;;;0.30;;
17710;SDS011;8975;57.718;12.134;2022-07-06T07:28:09;580.78;;;0.30;;
17710;SDS011;8975;57.718;12.134;2022-07-06T07:30:35;582.13;;;0.30;;
17710;SDS011;8975;57.718;12.134;2022-07-06T07:33:00;579.65;;;0.30;;
17710;SDS011;8975;57.718;12.134;2022-07-06T07:35:26;584.17;;;0.30;;
17710;SDS011;8975;57.718;12.134;2022-07-06T07:37:52;582.75;;;0.30;;
17710;SDS011;8975;57.718;12.134;2022-07-06T07:40:17;580.90;;;0.30;;
17710;SDS011;8975;57.718;12.134;2022-07-06T07:42:43;585.53;;;0.30;;
17710;SDS011;8975;57.718;12.134;2022-07-06T07:45:10;579.13;;;0.30;;
17710;SDS011;8975;57.718;12.134;2022-07-06T07:47:36;580.13;;;0.30;;
17710;SDS011;8975;57.718;12.134;2022-07-06T07:50:02;582.45;;;0.30;;
17710;SDS011;8975;57.718;12.134;2022-07-06T07:52:27;581.97;;;0.30;;
17710;SDS011;8975;57.718;12.134;2022-07-06T07:54:53;580.67;;;0.30;;
17710;SDS011;8975;57.718;12.134;2022-07-06T07:57:18;580.80;;;0.30;;
17710;SDS011;8975;57.718;12.134;2022-07-06T07:59:43;582.27;;;0.30;;
17710;SDS011;8975;57.718;12.134;2022-07-06T08:02:09;582.40;;;0.30;;
17710;SDS011;8975;57.718;12.134;2022-07-06T08:04:34;580.92;;;0.30;;
17710;SDS011;8975;57.718;12.134;2022-07-06T08:06:59;580.07;;;0.30;;
17710;SDS011;8975;57.718;12.134;2022-07-06T08:09:25;581.63;;;0.30;;
17710;SDS011;8975;57.718;12.134;2022-07-06T08:11:51;580.90;;;0.30;;
17710;SDS011;8975;57.718;12.134;2022-07-06T08:14:23;581.77;;;0.30;;
17710;SDS011;8975;57.718;12.134;2022-07-06T08:16:49;585.80;;;0.30;;
17710;SDS011;8975;57.718;12.134;2022-07-06T08:19:15;590.83;;;0.30;;
17710;SDS011;8975;57.718;12.134;2022-07-06T08:21:40;588.60;;;0.30;;
17710;SDS011;8975;57.718;12.134;2022-07-06T08:24:06;591.47;;;0.40;;
17710;SDS011;8975;57.718;12.134;2022-07-06T08:26:32;590.40;;;0.30;;
17710;SDS011;8975;57.718;12.134;2022-07-06T08:28:58;590.10;;;0.40;;
17710;SDS011;8975;57.718;12.134;2022-07-06T08:31:24;590.65;;;0.30;;
17710;SDS011;8975;57.718;12.134;2022-07-06T08:33:49;597.10;;;0.40;;
17710;SDS011;8975;57.718;12.134;2022-07-06T08:36:17;595.78;;;0.40;;
17710;SDS011;8975;57.718;12.134;2022-07-06T08:38:43;593.80;;;0.40;;
17710;SDS011;8975;57.718;12.134;2022-07-06T08:41:08;600.97;;;0.40;;
17710;SDS011;8975;57.718;12.134;2022-07-06T08:43:35;599.72;;;0.40;;
17710;SDS011;8975;57.718;12.134;2022-07-06T08:46:01;596.47;;;0.40;;
17710;SDS011;8975;57.718;12.134;2022-07-06T08:48:26;603.45;;;0.40;;
17710;SDS011;8975;57.718;12.134;2022-07-06T08:50:57;601.08;;;0.40;;
17710;SDS011;8975;57.718;12.134;2022-07-06T08:53:23;599.88;;;0.40;;
17710;SDS011;8975;57.718;12.134;2022-07-06T08:55:49;600.92;;;0.40;;
17710;SDS011;8975;57.718;12.134;2022-07-06T08:58:15;601.65;;;0.40;;
17710;SDS011;8975;57.718;12.134;2022-07-06T09:00:41;601.38;;;0.40;;
17710;SDS011;8975;57.718;12.134;2022-07-06T09:03:07;603.30;;;0.40;;
17710;SDS011;8975;57.718;12.134;2022-07-06T09:05:36;599.40;;;0.40;;
17710;SDS011;8975;57.718;12.134;2022-07-06T09:08:02;599.25;;;0.40;;
17710;SDS011;8975;57.718;12.134;2022-07-06T09:10:28;600.72;;;0.40;;
17710;SDS011;8975;57.718;12.134;2022-07-06T09:12:53;599.77;;;0.40;;
17710;SDS011;8975;57.718;12.134;2022-07-06T09:15:28;605.03;;;0.40;;
17710;SDS011;8975;57.718;12.134;2022-07-06T09:17:55;602.83;;;0.40;;
17710;SDS011;8975;57.718;12.134;2022-07-06T09:20:21;603.95;;;0.40;;
17710;SDS011;8975;57.718;12.134;2022-07-06T09:22:47;601.53;;;0.40;;
17710;SDS011;8975;57.718;12.134;2022-07-06T09:25:13;602.73;;;0.40;;
17710;SDS011;8975;57.718;12.134;2022-07-06T09:27:44;599.57;;;0.40;;
17710;SDS011;8975;57.718;12.134;2022-07-06T09:30:13;601.05;;;0.40;;
17710;SDS011;8975;57.718;12.134;2022-07-06T09:32:41;601.13;;;0.40;;
17710;SDS011;8975;57.718;12.134;2022-07-06T09:35:08;597.33;;;0.40;;
17710;SDS011;8975;57.718;12.134;2022-07-06T09:37:45;594.92;;;0.40;;
17710;SDS011;8975;57.718;12.134;2022-07-06T09:40:16;601.35;;;0.40;;
17710;SDS011;8975;57.718;12.134;2022-07-06T09:42:42;596.97;;;0.40;;
17710;SDS011;8975;57.718;12.134;2022-07-06T09:45:10;597.20;;;0.40;;
17710;SDS011;8975;57.718;12.134;2022-07-06T09:47:35;594.87;;;0.40;;
17710;SDS011;8975;57.718;12.134;2022-07-06T09:50:04;593.53;;;0.40;;
17710;SDS011;8975;57.718;12.134;2022-07-06T09:52:33;593.40;;;0.40;;
17710;SDS011;8975;57.718;12.134;2022-07-06T09:54:59;591.50;;;0.40;;
17710;SDS011;8975;57.718;12.134;2022-07-06T09:57:24;594.47;;;0.40;;
17710;SDS011;8975;57.718;12.134;2022-07-06T09:59:50;589.55;;;0.40;;
17710;SDS011;8975;57.718;12.134;2022-07-06T10:02:17;595.55;;;0.40;;
17710;SDS011;8975;57.718;12.134;2022-07-06T10:04:44;591.28;;;0.40;;
17710;SDS011;8975;57.718;12.134;2022-07-06T10:07:11;590.65;;;0.40;;
17710;SDS011;8975;57.718;12.134;2022-07-06T10:09:37;595.33;;;0.40;;
17710;SDS011;8975;57.718;12.134;2022-07-06T10:12:03;594.97;;;0.40;;
17710;SDS011;8975;57.718;12.134;2022-07-06T10:14:31;592.10;;;0.40;;
17710;SDS011;8975;57.718;12.134;2022-07-06T10:16:59;595.65;;;0.40;;
17710;SDS011;8975;57.718;12.134;2022-07-06T10:19:26;591.85;;;0.40;;
17710;SDS011;8975;57.718;12.134;2022-07-06T10:21:53;588.83;;;0.40;;
17710;SDS011;8975;57.718;12.134;2022-07-06T10:24:24;590.15;;;0.40;;
17710;SDS011;8975;57.718;12.134;2022-07-06T10:26:50;591.33;;;0.40;;
17710;SDS011;8975;57.718;12.134;2022-07-06T10:29:15;594.80;;;0.40;;
17710;SDS011;8975;57.718;12.134;2022-07-06T10:31:43;592.45;;;0.40;;
17710;SDS011;8975;57.718;12.134;2022-07-06T10:34:11;593.17;;;0.40;;
17710;SDS011;8975;57.718;12.134;2022-07-06T10:36:42;590.30;;;0.40;;
17710;SDS011;8975;57.718;12.134;2022-07-06T10:39:09;591.08;;;0.40;;
17710;SDS011;8975;57.718;12.134;2022-07-06T10:41:54;597.13;;;0.40;;
17710;SDS011;8975;57.718;12.134;2022-07-06T10:44:20;588.75;;;0.40;;
17710;SDS011;8975;57.718;12.134;2022-07-06T10:46:55;590.03;;;0.40;;
17710;SDS011;8975;57.718;12.134;2022-07-06T10:49:24;585.70;;;0.40;;
17710;SDS011;8975;57.718;12.134;2022-07-06T10:51:51;587.45;;;0.40;;
17710;SDS011;8975;57.718;12.134;2022-07-06T10:54:17;589.55;;;0.40;;
17710;SDS011;8975;57.718;12.134;2022-07-06T10:56:45;592.35;;;0.40;;
17710;SDS011;8975;57.718;12.134;2022-07-06T10:59:12;590.17;;;0.40;;
17710;SDS011;8975;57.718;12.134;2022-07-06T11:02:29;591.15;;;0.40;;
17710;SDS011;8975;57.718;12.134;2022-07-06T11:04:47;587.38;;;0.40;;
17710;SDS011;8975;57.718;12.134;2022-07-06T11:07:14;591.30;;;0.30;;
17710;SDS011;8975;57.718;12.134;2022-07-06T11:09:56;586.70;;;0.30;;
17710;SDS011;8975;57.718;12.134;2022-07-06T11:12:23;587.65;;;0.40;;
17710;SDS011;8975;57.718;12.134;2022-07-06T11:14:49;587.53;;;0.40;;
17710;SDS011;8975;57.718;12.134;2022-07-06T11:17:16;590.40;;;0.40;;
17710;SDS011;8975;57.718;12.134;2022-07-06T11:19:55;589.92;;;0.30;;
17710;SDS011;8975;57.718;12.134;2022-07-06T11:22:22;591.17;;;0.40;;
17710;SDS011;8975;57.718;12.134;2022-07-06T11:24:49;593.10;;;0.40;;
17710;SDS011;8975;57.718;12.134;2022-07-06T11:27:16;596.28;;;0.40;;
17710;SDS011;8975;57.718;12.134;2022-07-06T11:29:44;593.73;;;0.40;;
17710;SDS011;8975;57.718;12.134;2022-07-06T11:32:10;594.13;;;0.40;;
17710;SDS011;8975;57.718;12.134;2022-07-06T11:34:45;591.65;;;0.40;;
17710;SDS011;8975;57.718;12.134;2022-07-06T11:37:11;589.17;;;0.40;;
17710;SDS011;8975;57.718;12.134;2022-07-06T11:39:42;583.97;;;0.40;;
17710;SDS011;8975;57.718;12.134;2022-07-06T11:42:10;590.08;;;0.30;;
17710;SDS011;8975;57.718;12.134;2022-07-06T11:44:37;585.28;;;0.30;;
17710;SDS011;8975;57.718;12.134;2022-07-06T11:47:03;583.30;;;0.30;;
17710;SDS011;8975;57.718;12.134;2022-07-06T11:49:30;582.38;;;0.30;;
17710;SDS011;8975;57.718;12.134;2022-07-06T11:51:56;581.92;;;0.30;;
17710;SDS011;8975;57.718;12.134;2022-07-06T11:54:23;584.67;;;0.30;;
17710;SDS011;8975;57.718;12.134;2022-07-06T11:56:53;583.25;;;0.30;;
17710;SDS011;8975;57.718;12.134;2022-07-06T11:59:20;584.45;;;0.30;;
17710;SDS011;8975;57.718;12.134;2022-07-06T12:01:47;585.08;;;0.30;;
17710;SDS011;8975;57.718;12.134;2022-07-06T12:04:13;582.63;;;0.30;;
17710;SDS011;8975;57.718;12.134;2022-07-06T12:06:38;584.57;;;0.30;;
17710;SDS011;8975;57.718;12.134;2022-07-06T12:09:04;584.73;;;0.30;;
17710;SDS011;8975;57.718;12.134;2022-07-06T12:11:35;583.65;;;0.30;;
17710;SDS011;8975;57.718;12.134;2022-07-06T12:14:19;581.50;;;0.30;;
17710;SDS011;8975;57.718;12.134;2022-07-06T12:16:52;583.97;;;0.30;;
17710;SDS011;8975;57.718;12.134;2022-07-06T12:19:19;579.63;;;0.30;;
17710;SDS011;8975;57.718;12.134;2022-07-06T12:21:48;585.03;;;0.30;;
17710;SDS011;8975;57.718;12.134;2022-07-06T12:24:35;582.43;;;0.30;;
17710;SDS011;8975;57.718;12.134;2022-07-06T12:27:09;584.22;;;0.30;;
17710;SDS011;8975;57.718;12.134;2022-07-06T12:29:37;584.38;;;0.30;;
17710;SDS011;8975;57.718;12.134;2022-07-06T12:32:02;586.47;;;0.30;;
17710;SDS011;8975;57.718;12.134;2022-07-06T12:34:28;584.90;;;0.30;;
17710;SDS011;8975;57.718;12.134;2022-07-06T12:37:05;586.78;;;0.35;;
17710;SDS011;8975;57.718;12.134;2022-07-06T12:39:32;586.42;;;0.30;;
17710;SDS011;8975;57.718;12.134;2022-07-06T12:42:05;588.35;;;0.40;;
17710;SDS011;8975;57.718;12.134;2022-07-06T12:44:31;587.77;;;0.30;;
17710;SDS011;8975;57.718;12.134;2022-07-06T12:47:03;589.47;;;0.40;;
17710;SDS011;8975;57.718;12.134;2022-07-06T12:49:34;588.13;;;0.40;;
17710;SDS011;8975;57.718;12.134;2022-07-06T12:52:02;589.03;;;0.32;;
17710;SDS011;8975;57.718;12.134;2022-07-06T12:54:44;588.55;;;0.40;;
17710;SDS011;8975;57.718;12.134;2022-07-06T12:57:17;589.67;;;0.30;;
17710;SDS011;8975;57.718;12.134;2022-07-06T13:02:17;587.40;;;0.30;;
17710;SDS011;8975;57.718;12.134;2022-07-06T13:05:00;588.75;;;0.30;;
17710;SDS011;8975;57.718;12.134;2022-07-06T13:07:27;586.70;;;0.30;;
17710;SDS011;8975;57.718;12.134;2022-07-06T13:09:54;585.88;;;0.30;;
17710;SDS011;8975;57.718;12.134;2022-07-06T13:12:20;586.22;;;0.30;;
17710;SDS011;8975;57.718;12.134;2022-07-06T13:14:46;586.80;;;0.30;;
17710;SDS011;8975;57.718;12.134;2022-07-06T13:17:12;584.53;;;0.30;;
17710;SDS011;8975;57.718;12.134;2022-07-06T13:19:37;588.67;;;0.30;;
17710;SDS011;8975;57.718;12.134;2022-07-06T13:22:03;588.33;;;0.30;;
17710;SDS011;8975;57.718;12.134;2022-07-06T13:24:29;590.17;;;0.30;;
17710;SDS011;8975;57.718;12.134;2022-07-06T13:26:55;586.00;;;0.30;;
17710;SDS011;8975;57.718;12.134;2022-07-06T13:29:21;589.33;;;0.30;;
17710;SDS011;8975;57.718;12.134;2022-07-06T13:31:46;587.00;;;0.30;;
17710;SDS011;8975;57.718;12.134;2022-07-06T13:34:11;587.83;;;0.30;;
17710;SDS011;8975;57.718;12.134;2022-07-06T13:36:38;585.53;;;0.30;;
17710;SDS011;8975;57.718;12.134;2022-07-06T13:39:04;588.17;;;0.30;;
17710;SDS011;8975;57.718;12.134;2022-07-06T13:41:29;583.80;;;0.30;;
17710;SDS011;8975;57.718;12.134;2022-07-06T13:43:55;586.15;;;0.30;;
17710;SDS011;8975;57.718;12.134;2022-07-06T13:46:20;584.90;;;0.30;;
17710;SDS011;8975;57.718;12.134;2022-07-06T13:48:46;584.67;;;0.30;;
17710;SDS011;8975;57.718;12.134;2022-07-06T13:51:12;585.67;;;0.30;;
17710;SDS011;8975;57.718;12.134;2022-07-06T13:53:37;585.90;;;0.30;;
17710;SDS011;8975;57.718;12.134;2022-07-06T13:56:03;589.70;;;0.30;;
17710;SDS011;8975;57.718;12.134;2022-07-06T13:58:29;589.53;;;0.30;;
17710;SDS011;8975;57.718;12.134;2022-07-06T14:00:54;585.77;;;0.30;;
17710;SDS011;8975;57.718;12.134;2022-07-06T14:03:19;587.93;;;0.30;;
17710;SDS011;8975;57.718;12.134;2022-07-06T14:05:46;589.17;;;0.30;;
17710;SDS011;8975;57.718;12.134;2022-07-06T14:08:12;583.38;;;0.30;;
17710;SDS011;8975;57.718;12.134;2022-07-06T14:10:37;584.93;;;0.30;;
17710;SDS011;8975;57.718;12.134;2022-07-06T14:13:03;585.47;;;0.30;;
17710;SDS011;8975;57.718;12.134;2022-07-06T14:15:28;582.67;;;0.30;;
17710;SDS011;8975;57.718;12.134;2022-07-06T14:17:54;586.13;;;0.30;;
17710;SDS011;8975;57.718;12.134;2022-07-06T14:20:19;586.97;;;0.30;;
17710;SDS011;8975;57.718;12.134;2022-07-06T14:22:44;582.70;;;0.30;;